Weather at Indianapolis Regional Airport

Public forecast

Using degrees Fahrenheit for public forecast. Weather courtesy of forecast.io.

Current aviation weather report (METAR) for Indianapolis Regional Airport

Retrieved 2021/05/09 01:36 UTC (14 minutes ago):

KMQJ 090136Z AUTO 00000KT 10SM OVC100 10/05 A3002 RMK AO1

Closest aviation forecast (TAF) to Indianapolis Regional Airport

Closest forecast is Indianapolis International Airport, 19.8 nm (36.7 km) WSW. Retrieved 2021-05-09 00:39 UTC (1 hour ago):

TAF KIND 082338Z 0900/1006 09005KT P6SM VCSH SCT090 BKN120 BKN250 FM090400 11007G15KT 6SM SHRA OVC050 FM090800 10010G21KT 6SM SHRA BR OVC035 FM091800 25012G22KT 4SM SHRA BR OVC007 FM092200 02015G24KT P6SM OVC009